sensor_id;sensor_type;location;lat;lon;timestamp;P1;durP1;ratioP1;P2;durP2;ratioP2
81265;SDS011;70748;52.510;13.410;2023-07-31T00:00:45;8.68;;;2.20;;
81265;SDS011;70748;52.510;13.410;2023-07-31T00:03:11;7.30;;;2.05;;
81265;SDS011;70748;52.510;13.410;2023-07-31T00:05:37;10.82;;;3.03;;
81265;SDS011;70748;52.510;13.410;2023-07-31T00:08:02;6.72;;;2.22;;
81265;SDS011;70748;52.510;13.410;2023-07-31T00:10:28;8.70;;;2.80;;
81265;SDS011;70748;52.510;13.410;2023-07-31T00:12:54;8.48;;;2.28;;
81265;SDS011;70748;52.510;13.410;2023-07-31T00:15:19;6.85;;;2.38;;
81265;SDS011;70748;52.510;13.410;2023-07-31T00:17:45;5.63;;;2.40;;
81265;SDS011;70748;52.510;13.410;2023-07-31T00:20:11;8.32;;;2.22;;
81265;SDS011;70748;52.510;13.410;2023-07-31T00:22:37;5.57;;;2.40;;
81265;SDS011;70748;52.510;13.410;2023-07-31T00:25:03;5.47;;;2.50;;
81265;SDS011;70748;52.510;13.410;2023-07-31T00:27:32;4.00;;;2.22;;
81265;SDS011;70748;52.510;13.410;2023-07-31T00:29:58;8.15;;;2.35;;
81265;SDS011;70748;52.510;13.410;2023-07-31T00:32:23;6.00;;;2.40;;
81265;SDS011;70748;52.510;13.410;2023-07-31T00:34:49;5.65;;;2.67;;
81265;SDS011;70748;52.510;13.410;2023-07-31T00:37:15;5.78;;;2.38;;
81265;SDS011;70748;52.510;13.410;2023-07-31T00:39:40;4.88;;;2.30;;
81265;SDS011;70748;52.510;13.410;2023-07-31T00:42:06;11.52;;;3.05;;
81265;SDS011;70748;52.510;13.410;2023-07-31T00:44:32;5.85;;;2.35;;
81265;SDS011;70748;52.510;13.410;2023-07-31T00:46:58;6.28;;;2.45;;
81265;SDS011;70748;52.510;13.410;2023-07-31T00:49:24;7.50;;;2.67;;
81265;SDS011;70748;52.510;13.410;2023-07-31T00:51:51;7.53;;;2.70;;
81265;SDS011;70748;52.510;13.410;2023-07-31T00:54:17;10.23;;;2.75;;
81265;SDS011;70748;52.510;13.410;2023-07-31T00:56:44;6.20;;;2.40;;
81265;SDS011;70748;52.510;13.410;2023-07-31T00:59:11;4.07;;;2.50;;
81265;SDS011;70748;52.510;13.410;2023-07-31T01:01:37;4.97;;;2.45;;
81265;SDS011;70748;52.510;13.410;2023-07-31T01:04:03;5.72;;;2.30;;
81265;SDS011;70748;52.510;13.410;2023-07-31T01:06:31;9.07;;;2.92;;
81265;SDS011;70748;52.510;13.410;2023-07-31T01:11:46;5.23;;;2.70;;
81265;SDS011;70748;52.510;13.410;2023-07-31T01:14:17;6.97;;;2.47;;
81265;SDS011;70748;52.510;13.410;2023-07-31T01:16:43;5.07;;;2.50;;
81265;SDS011;70748;52.510;13.410;2023-07-31T01:19:08;5.90;;;2.70;;
81265;SDS011;70748;52.510;13.410;2023-07-31T01:26:36;6.40;;;2.63;;
81265;SDS011;70748;52.510;13.410;2023-07-31T01:29:14;5.93;;;2.70;;
81265;SDS011;70748;52.510;13.410;2023-07-31T01:31:48;5.35;;;2.85;;
81265;SDS011;70748;52.510;13.410;2023-07-31T01:34:18;6.47;;;2.65;;
81265;SDS011;70748;52.510;13.410;2023-07-31T01:36:45;7.95;;;2.80;;
81265;SDS011;70748;52.510;13.410;2023-07-31T01:39:11;6.13;;;2.80;;
81265;SDS011;70748;52.510;13.410;2023-07-31T01:41:36;8.85;;;2.90;;
81265;SDS011;70748;52.510;13.410;2023-07-31T01:44:02;5.68;;;2.85;;
81265;SDS011;70748;52.510;13.410;2023-07-31T01:46:28;6.63;;;3.17;;
81265;SDS011;70748;52.510;13.410;2023-07-31T01:48:54;9.65;;;3.05;;
81265;SDS011;70748;52.510;13.410;2023-07-31T01:51:20;10.07;;;2.90;;
81265;SDS011;70748;52.510;13.410;2023-07-31T01:53:45;7.22;;;3.10;;
81265;SDS011;70748;52.510;13.410;2023-07-31T01:56:11;6.57;;;2.65;;
81265;SDS011;70748;52.510;13.410;2023-07-31T01:58:36;6.15;;;2.90;;
81265;SDS011;70748;52.510;13.410;2023-07-31T02:01:02;5.28;;;3.10;;
81265;SDS011;70748;52.510;13.410;2023-07-31T02:03:28;4.38;;;3.10;;
81265;SDS011;70748;52.510;13.410;2023-07-31T02:05:53;8.40;;;2.85;;
81265;SDS011;70748;52.510;13.410;2023-07-31T02:08:19;11.35;;;3.10;;
81265;SDS011;70748;52.510;13.410;2023-07-31T02:10:45;5.63;;;2.78;;
81265;SDS011;70748;52.510;13.410;2023-07-31T02:13:11;8.55;;;3.00;;
81265;SDS011;70748;52.510;13.410;2023-07-31T02:15:36;7.10;;;3.08;;
81265;SDS011;70748;52.510;13.410;2023-07-31T02:18:02;5.75;;;2.97;;
81265;SDS011;70748;52.510;13.410;2023-07-31T02:20:28;9.70;;;3.05;;
81265;SDS011;70748;52.510;13.410;2023-07-31T02:22:53;13.05;;;2.90;;
81265;SDS011;70748;52.510;13.410;2023-07-31T02:25:19;6.88;;;2.95;;
81265;SDS011;70748;52.510;13.410;2023-07-31T02:27:45;6.13;;;2.60;;
81265;SDS011;70748;52.510;13.410;2023-07-31T02:30:10;9.52;;;3.03;;
81265;SDS011;70748;52.510;13.410;2023-07-31T02:32:36;11.40;;;3.10;;
81265;SDS011;70748;52.510;13.410;2023-07-31T02:35:02;5.97;;;2.85;;
81265;SDS011;70748;52.510;13.410;2023-07-31T02:37:28;4.47;;;2.63;;
81265;SDS011;70748;52.510;13.410;2023-07-31T02:39:54;3.78;;;2.55;;
81265;SDS011;70748;52.510;13.410;2023-07-31T02:42:20;5.53;;;2.90;;
81265;SDS011;70748;52.510;13.410;2023-07-31T02:44:45;4.97;;;2.97;;
81265;SDS011;70748;52.510;13.410;2023-07-31T02:47:11;6.22;;;2.90;;
81265;SDS011;70748;52.510;13.410;2023-07-31T02:49:37;4.47;;;2.70;;
81265;SDS011;70748;52.510;13.410;2023-07-31T02:52:03;9.65;;;2.83;;
81265;SDS011;70748;52.510;13.410;2023-07-31T02:54:28;8.07;;;2.97;;
81265;SDS011;70748;52.510;13.410;2023-07-31T02:56:54;8.82;;;3.28;;
81265;SDS011;70748;52.510;13.410;2023-07-31T02:59:20;7.45;;;3.10;;
81265;SDS011;70748;52.510;13.410;2023-07-31T03:01:46;8.23;;;3.60;;
81265;SDS011;70748;52.510;13.410;2023-07-31T03:04:11;4.85;;;2.85;;
81265;SDS011;70748;52.510;13.410;2023-07-31T03:06:37;7.95;;;3.05;;
81265;SDS011;70748;52.510;13.410;2023-07-31T03:09:02;6.82;;;3.42;;
81265;SDS011;70748;52.510;13.410;2023-07-31T03:11:28;8.98;;;3.97;;
81265;SDS011;70748;52.510;13.410;2023-07-31T03:13:54;8.85;;;3.85;;
81265;SDS011;70748;52.510;13.410;2023-07-31T03:16:19;8.38;;;4.00;;
81265;SDS011;70748;52.510;13.410;2023-07-31T03:18:45;12.93;;;4.40;;
81265;SDS011;70748;52.510;13.410;2023-07-31T03:21:11;9.43;;;4.00;;
81265;SDS011;70748;52.510;13.410;2023-07-31T03:23:37;9.43;;;4.18;;
81265;SDS011;70748;52.510;13.410;2023-07-31T03:26:06;8.05;;;4.30;;
81265;SDS011;70748;52.510;13.410;2023-07-31T03:28:32;10.00;;;4.43;;
81265;SDS011;70748;52.510;13.410;2023-07-31T03:30:58;7.57;;;3.88;;
81265;SDS011;70748;52.510;13.410;2023-07-31T03:33:24;7.93;;;4.10;;
81265;SDS011;70748;52.510;13.410;2023-07-31T03:35:50;9.25;;;4.70;;
81265;SDS011;70748;52.510;13.410;2023-07-31T03:38:16;18.23;;;4.20;;
81265;SDS011;70748;52.510;13.410;2023-07-31T03:40:42;9.85;;;4.13;;
81265;SDS011;70748;52.510;13.410;2023-07-31T03:43:08;8.15;;;4.25;;
81265;SDS011;70748;52.510;13.410;2023-07-31T03:45:34;11.18;;;4.30;;
81265;SDS011;70748;52.510;13.410;2023-07-31T03:47:59;7.70;;;4.40;;
81265;SDS011;70748;52.510;13.410;2023-07-31T03:50:25;10.18;;;4.35;;
81265;SDS011;70748;52.510;13.410;2023-07-31T03:52:51;7.95;;;4.57;;
81265;SDS011;70748;52.510;13.410;2023-07-31T03:55:17;10.07;;;4.00;;
81265;SDS011;70748;52.510;13.410;2023-07-31T03:57:43;7.38;;;4.35;;
81265;SDS011;70748;52.510;13.410;2023-07-31T04:00:09;8.05;;;4.40;;
81265;SDS011;70748;52.510;13.410;2023-07-31T04:02:35;10.18;;;3.90;;
81265;SDS011;70748;52.510;13.410;2023-07-31T04:05:00;14.10;;;4.25;;
81265;SDS011;70748;52.510;13.410;2023-07-31T04:07:26;11.07;;;4.15;;
81265;SDS011;70748;52.510;13.410;2023-07-31T04:09:52;8.30;;;3.88;;
81265;SDS011;70748;52.510;13.410;2023-07-31T04:12:17;11.93;;;3.83;;
81265;SDS011;70748;52.510;13.410;2023-07-31T04:14:43;9.80;;;3.60;;
81265;SDS011;70748;52.510;13.410;2023-07-31T04:17:08;12.75;;;3.83;;
81265;SDS011;70748;52.510;13.410;2023-07-31T04:19:34;10.45;;;4.30;;
81265;SDS011;70748;52.510;13.410;2023-07-31T04:22:00;6.43;;;3.67;;
81265;SDS011;70748;52.510;13.410;2023-07-31T04:24:25;8.77;;;3.85;;
81265;SDS011;70748;52.510;13.410;2023-07-31T04:26:51;9.32;;;3.72;;
81265;SDS011;70748;52.510;13.410;2023-07-31T04:29:18;7.07;;;3.65;;
81265;SDS011;70748;52.510;13.410;2023-07-31T04:31:44;12.30;;;4.13;;
81265;SDS011;70748;52.510;13.410;2023-07-31T04:34:10;10.15;;;4.00;;
81265;SDS011;70748;52.510;13.410;2023-07-31T04:36:36;6.80;;;4.13;;
81265;SDS011;70748;52.510;13.410;2023-07-31T04:39:02;11.48;;;3.92;;
81265;SDS011;70748;52.510;13.410;2023-07-31T04:41:28;12.65;;;3.83;;
81265;SDS011;70748;52.510;13.410;2023-07-31T04:43:53;15.48;;;3.50;;
81265;SDS011;70748;52.510;13.410;2023-07-31T04:46:19;10.48;;;3.90;;
81265;SDS011;70748;52.510;13.410;2023-07-31T04:48:45;8.57;;;3.83;;
81265;SDS011;70748;52.510;13.410;2023-07-31T04:51:10;7.53;;;3.72;;
81265;SDS011;70748;52.510;13.410;2023-07-31T04:53:36;8.23;;;3.45;;
81265;SDS011;70748;52.510;13.410;2023-07-31T04:56:20;7.10;;;3.47;;
81265;SDS011;70748;52.510;13.410;2023-07-31T05:05:52;15.73;;;3.80;;
81265;SDS011;70748;52.510;13.410;2023-07-31T05:08:17;12.32;;;3.85;;
81265;SDS011;70748;52.510;13.410;2023-07-31T05:10:43;9.65;;;4.15;;
81265;SDS011;70748;52.510;13.410;2023-07-31T05:13:09;8.05;;;4.05;;
81265;SDS011;70748;52.510;13.410;2023-07-31T05:15:34;8.93;;;3.80;;
81265;SDS011;70748;52.510;13.410;2023-07-31T05:18:00;6.90;;;3.50;;
81265;SDS011;70748;52.510;13.410;2023-07-31T05:20:26;10.73;;;4.10;;
81265;SDS011;70748;52.510;13.410;2023-07-31T05:22:52;9.35;;;3.85;;
81265;SDS011;70748;52.510;13.410;2023-07-31T05:25:18;13.43;;;4.55;;
81265;SDS011;70748;52.510;13.410;2023-07-31T05:27:44;8.45;;;4.10;;
81265;SDS011;70748;52.510;13.410;2023-07-31T05:30:10;11.65;;;3.95;;
81265;SDS011;70748;52.510;13.410;2023-07-31T05:32:35;7.55;;;3.72;;
81265;SDS011;70748;52.510;13.410;2023-07-31T05:35:01;12.68;;;3.95;;
81265;SDS011;70748;52.510;13.410;2023-07-31T05:37:27;7.63;;;3.80;;
81265;SDS011;70748;52.510;13.410;2023-07-31T05:39:52;6.95;;;3.35;;
81265;SDS011;70748;52.510;13.410;2023-07-31T05:42:18;6.70;;;3.33;;
81265;SDS011;70748;52.510;13.410;2023-07-31T05:44:44;6.15;;;3.35;;
81265;SDS011;70748;52.510;13.410;2023-07-31T05:47:10;12.57;;;3.50;;
81265;SDS011;70748;52.510;13.410;2023-07-31T05:49:35;6.78;;;3.33;;
81265;SDS011;70748;52.510;13.410;2023-07-31T05:52:01;7.07;;;3.10;;
81265;SDS011;70748;52.510;13.410;2023-07-31T05:54:27;7.03;;;2.90;;
81265;SDS011;70748;52.510;13.410;2023-07-31T05:56:52;10.38;;;3.42;;
81265;SDS011;70748;52.510;13.410;2023-07-31T05:59:18;10.45;;;3.13;;
81265;SDS011;70748;52.510;13.410;2023-07-31T06:01:44;7.80;;;3.25;;
81265;SDS011;70748;52.510;13.410;2023-07-31T06:04:09;9.77;;;3.33;;
81265;SDS011;70748;52.510;13.410;2023-07-31T06:06:35;6.65;;;3.17;;
81265;SDS011;70748;52.510;13.410;2023-07-31T06:09:01;7.28;;;3.22;;
81265;SDS011;70748;52.510;13.410;2023-07-31T06:11:28;9.70;;;3.42;;
81265;SDS011;70748;52.510;13.410;2023-07-31T06:13:54;9.73;;;3.45;;
81265;SDS011;70748;52.510;13.410;2023-07-31T06:16:19;9.57;;;3.00;;
81265;SDS011;70748;52.510;13.410;2023-07-31T06:18:46;10.68;;;3.60;;
81265;SDS011;70748;52.510;13.410;2023-07-31T06:21:12;8.45;;;3.53;;
81265;SDS011;70748;52.510;13.410;2023-07-31T06:23:38;7.53;;;3.30;;
81265;SDS011;70748;52.510;13.410;2023-07-31T06:26:04;7.07;;;3.58;;
81265;SDS011;70748;52.510;13.410;2023-07-31T06:28:30;7.18;;;3.20;;
81265;SDS011;70748;52.510;13.410;2023-07-31T06:30:57;9.75;;;3.08;;
81265;SDS011;70748;52.510;13.410;2023-07-31T06:33:23;10.88;;;3.15;;
81265;SDS011;70748;52.510;13.410;2023-07-31T06:35:49;10.80;;;3.55;;
81265;SDS011;70748;52.510;13.410;2023-07-31T06:38:15;7.20;;;3.60;;
81265;SDS011;70748;52.510;13.410;2023-07-31T06:40:41;6.82;;;3.10;;
81265;SDS011;70748;52.510;13.410;2023-07-31T06:43:06;6.80;;;2.78;;
81265;SDS011;70748;52.510;13.410;2023-07-31T06:45:35;5.95;;;2.90;;
81265;SDS011;70748;52.510;13.410;2023-07-31T06:48:01;9.38;;;3.00;;
81265;SDS011;70748;52.510;13.410;2023-07-31T06:50:29;8.70;;;2.80;;
81265;SDS011;70748;52.510;13.410;2023-07-31T06:52:55;6.57;;;3.08;;
81265;SDS011;70748;52.510;13.410;2023-07-31T06:55:21;9.35;;;2.65;;
81265;SDS011;70748;52.510;13.410;2023-07-31T06:57:48;9.23;;;2.78;;
81265;SDS011;70748;52.510;13.410;2023-07-31T07:00:15;8.63;;;2.70;;
81265;SDS011;70748;52.510;13.410;2023-07-31T07:02:42;10.18;;;2.83;;
81265;SDS011;70748;52.510;13.410;2023-07-31T07:05:08;6.47;;;2.90;;
81265;SDS011;70748;52.510;13.410;2023-07-31T07:07:33;9.68;;;2.90;;
81265;SDS011;70748;52.510;13.410;2023-07-31T07:10:00;6.40;;;2.70;;
81265;SDS011;70748;52.510;13.410;2023-07-31T07:12:26;7.43;;;2.35;;
81265;SDS011;70748;52.510;13.410;2023-07-31T07:14:55;7.03;;;3.00;;
81265;SDS011;70748;52.510;13.410;2023-07-31T07:17:22;6.90;;;2.83;;
81265;SDS011;70748;52.510;13.410;2023-07-31T07:19:48;10.93;;;3.03;;
81265;SDS011;70748;52.510;13.410;2023-07-31T07:22:14;10.43;;;3.33;;
81265;SDS011;70748;52.510;13.410;2023-07-31T07:24:40;8.07;;;3.03;;
81265;SDS011;70748;52.510;13.410;2023-07-31T07:27:05;10.60;;;2.92;;
81265;SDS011;70748;52.510;13.410;2023-07-31T07:29:31;8.82;;;3.10;;
81265;SDS011;70748;52.510;13.410;2023-07-31T07:31:59;9.35;;;2.85;;
81265;SDS011;70748;52.510;13.410;2023-07-31T07:34:27;7.45;;;2.38;;
81265;SDS011;70748;52.510;13.410;2023-07-31T07:36:54;5.60;;;2.60;;
81265;SDS011;70748;52.510;13.410;2023-07-31T07:39:20;11.07;;;3.00;;
81265;SDS011;70748;52.510;13.410;2023-07-31T07:41:45;6.22;;;2.80;;
81265;SDS011;70748;52.510;13.410;2023-07-31T07:44:11;6.35;;;2.72;;
81265;SDS011;70748;52.510;13.410;2023-07-31T07:46:37;8.50;;;3.13;;
81265;SDS011;70748;52.510;13.410;2023-07-31T07:49:03;9.05;;;3.22;;
81265;SDS011;70748;52.510;13.410;2023-07-31T07:51:29;6.15;;;2.65;;
81265;SDS011;70748;52.510;13.410;2023-07-31T07:53:56;10.20;;;3.30;;
81265;SDS011;70748;52.510;13.410;2023-07-31T07:56:26;5.68;;;2.50;;
81265;SDS011;70748;52.510;13.410;2023-07-31T07:58:52;8.15;;;2.58;;
81265;SDS011;70748;52.510;13.410;2023-07-31T08:01:18;5.45;;;2.78;;
81265;SDS011;70748;52.510;13.410;2023-07-31T08:03:44;6.35;;;2.75;;
81265;SDS011;70748;52.510;13.410;2023-07-31T08:06:10;7.18;;;2.90;;
81265;SDS011;70748;52.510;13.410;2023-07-31T08:08:36;4.85;;;2.40;;
81265;SDS011;70748;52.510;13.410;2023-07-31T08:11:02;4.90;;;2.60;;
81265;SDS011;70748;52.510;13.410;2023-07-31T08:13:27;4.82;;;2.42;;
81265;SDS011;70748;52.510;13.410;2023-07-31T08:15:53;7.53;;;2.60;;
81265;SDS011;70748;52.510;13.410;2023-07-31T08:18:19;7.18;;;3.17;;
81265;SDS011;70748;52.510;13.410;2023-07-31T08:20:45;6.35;;;2.13;;
81265;SDS011;70748;52.510;13.410;2023-07-31T08:23:10;6.22;;;2.25;;
81265;SDS011;70748;52.510;13.410;2023-07-31T08:25:36;6.70;;;2.25;;
81265;SDS011;70748;52.510;13.410;2023-07-31T08:28:03;4.93;;;2.58;;
81265;SDS011;70748;52.510;13.410;2023-07-31T08:30:29;2.35;;;2.08;;
81265;SDS011;70748;52.510;13.410;2023-07-31T08:32:55;3.42;;;2.00;;
81265;SDS011;70748;52.510;13.410;2023-07-31T08:35:21;4.65;;;2.00;;
81265;SDS011;70748;52.510;13.410;2023-07-31T08:37:46;3.20;;;2.20;;
81265;SDS011;70748;52.510;13.410;2023-07-31T08:40:12;5.45;;;2.30;;
81265;SDS011;70748;52.510;13.410;2023-07-31T08:42:45;3.72;;;2.40;;
81265;SDS011;70748;52.510;13.410;2023-07-31T08:45:15;4.10;;;2.08;;
81265;SDS011;70748;52.510;13.410;2023-07-31T08:47:47;6.20;;;2.15;;
81265;SDS011;70748;52.510;13.410;2023-07-31T08:50:14;4.35;;;2.33;;
81265;SDS011;70748;52.510;13.410;2023-07-31T08:52:41;5.13;;;2.30;;
81265;SDS011;70748;52.510;13.410;2023-07-31T08:55:07;4.85;;;2.53;;
81265;SDS011;70748;52.510;13.410;2023-07-31T08:57:34;4.90;;;2.80;;
81265;SDS011;70748;52.510;13.410;2023-07-31T09:00:02;3.67;;;1.93;;
81265;SDS011;70748;52.510;13.410;2023-07-31T09:02:31;3.17;;;2.17;;
81265;SDS011;70748;52.510;13.410;2023-07-31T09:05:06;5.97;;;2.60;;
81265;SDS011;70748;52.510;13.410;2023-07-31T09:07:33;4.80;;;2.47;;
81265;SDS011;70748;52.510;13.410;2023-07-31T09:10:01;7.47;;;2.63;;
81265;SDS011;70748;52.510;13.410;2023-07-31T09:12:27;5.70;;;2.35;;
81265;SDS011;70748;52.510;13.410;2023-07-31T09:14:53;4.57;;;2.38;;
81265;SDS011;70748;52.510;13.410;2023-07-31T09:17:31;2.38;;;1.83;;
81265;SDS011;70748;52.510;13.410;2023-07-31T09:20:12;4.80;;;2.05;;
81265;SDS011;70748;52.510;13.410;2023-07-31T09:22:43;5.10;;;2.08;;
81265;SDS011;70748;52.510;13.410;2023-07-31T09:25:19;4.30;;;2.00;;
81265;SDS011;70748;52.510;13.410;2023-07-31T09:28:03;4.53;;;2.40;;
81265;SDS011;70748;52.510;13.410;2023-07-31T09:30:30;3.40;;;1.83;;
81265;SDS011;70748;52.510;13.410;2023-07-31T09:33:05;3.28;;;1.63;;
81265;SDS011;70748;52.510;13.410;2023-07-31T09:35:35;6.85;;;3.58;;
81265;SDS011;70748;52.510;13.410;2023-07-31T09:38:04;3.22;;;1.70;;
81265;SDS011;70748;52.510;13.410;2023-07-31T09:40:35;2.92;;;1.73;;
81265;SDS011;70748;52.510;13.410;2023-07-31T09:43:09;5.78;;;1.75;;
81265;SDS011;70748;52.510;13.410;2023-07-31T09:45:36;3.75;;;1.60;;
81265;SDS011;70748;52.510;13.410;2023-07-31T09:48:06;2.50;;;1.73;;
81265;SDS011;70748;52.510;13.410;2023-07-31T09:50:37;3.92;;;2.00;;
81265;SDS011;70748;52.510;13.410;2023-07-31T09:53:04;2.20;;;1.35;;
81265;SDS011;70748;52.510;13.410;2023-07-31T09:55:34;3.03;;;1.65;;
81265;SDS011;70748;52.510;13.410;2023-07-31T09:58:04;2.00;;;1.40;;
81265;SDS011;70748;52.510;13.410;2023-07-31T10:00:31;2.60;;;1.23;;
81265;SDS011;70748;52.510;13.410;2023-07-31T10:03:01;4.65;;;1.55;;
81265;SDS011;70748;52.510;13.410;2023-07-31T10:05:34;3.83;;;1.88;;
81265;SDS011;70748;52.510;13.410;2023-07-31T10:08:13;4.88;;;2.08;;
81265;SDS011;70748;52.510;13.410;2023-07-31T10:10:43;6.22;;;2.28;;
81265;SDS011;70748;52.510;13.410;2023-07-31T10:13:10;2.47;;;1.80;;
81265;SDS011;70748;52.510;13.410;2023-07-31T10:15:37;4.03;;;1.98;;
81265;SDS011;70748;52.510;13.410;2023-07-31T10:18:05;4.88;;;2.10;;
81265;SDS011;70748;52.510;13.410;2023-07-31T10:20:32;6.03;;;2.53;;
81265;SDS011;70748;52.510;13.410;2023-07-31T10:22:58;4.28;;;2.75;;
81265;SDS011;70748;52.510;13.410;2023-07-31T10:25:26;6.00;;;3.00;;
81265;SDS011;70748;52.510;13.410;2023-07-31T10:27:52;8.80;;;2.67;;
81265;SDS011;70748;52.510;13.410;2023-07-31T10:30:20;4.07;;;2.42;;
81265;SDS011;70748;52.510;13.410;2023-07-31T10:32:48;4.13;;;2.63;;
81265;SDS011;70748;52.510;13.410;2023-07-31T10:35:16;12.40;;;3.20;;
81265;SDS011;70748;52.510;13.410;2023-07-31T10:37:42;7.07;;;3.40;;
81265;SDS011;70748;52.510;13.410;2023-07-31T10:40:18;6.85;;;3.42;;
81265;SDS011;70748;52.510;13.410;2023-07-31T10:42:52;7.55;;;3.55;;
81265;SDS011;70748;52.510;13.410;2023-07-31T10:48:07;8.35;;;5.03;;
81265;SDS011;70748;52.510;13.410;2023-07-31T10:50:49;10.18;;;3.00;;
81265;SDS011;70748;52.510;13.410;2023-07-31T10:53:26;8.60;;;3.08;;
81265;SDS011;70748;52.510;13.410;2023-07-31T10:55:57;7.90;;;3.40;;
81265;SDS011;70748;52.510;13.410;2023-07-31T10:58:24;8.02;;;3.20;;
81265;SDS011;70748;52.510;13.410;2023-07-31T11:00:51;10.70;;;3.63;;
81265;SDS011;70748;52.510;13.410;2023-07-31T11:03:24;5.95;;;3.40;;
81265;SDS011;70748;52.510;13.410;2023-07-31T11:06:03;7.15;;;3.28;;
81265;SDS011;70748;52.510;13.410;2023-07-31T11:13:27;8.82;;;3.25;;
81265;SDS011;70748;52.510;13.410;2023-07-31T11:15:58;4.80;;;3.05;;
81265;SDS011;70748;52.510;13.410;2023-07-31T11:18:25;6.90;;;3.35;;
81265;SDS011;70748;52.510;13.410;2023-07-31T11:20:52;7.85;;;3.20;;
81265;SDS011;70748;52.510;13.410;2023-07-31T11:23:18;7.13;;;3.50;;
81265;SDS011;70748;52.510;13.410;2023-07-31T11:25:45;9.63;;;3.55;;
81265;SDS011;70748;52.510;13.410;2023-07-31T11:28:12;7.68;;;3.35;;
81265;SDS011;70748;52.510;13.410;2023-07-31T11:30:42;9.45;;;3.55;;
81265;SDS011;70748;52.510;13.410;2023-07-31T11:33:09;5.10;;;3.25;;
81265;SDS011;70748;52.510;13.410;2023-07-31T11:35:41;6.27;;;3.33;;
81265;SDS011;70748;52.510;13.410;2023-07-31T11:40:50;8.32;;;3.30;;
81265;SDS011;70748;52.510;13.410;2023-07-31T11:43:17;6.05;;;3.38;;
81265;SDS011;70748;52.510;13.410;2023-07-31T11:45:46;11.82;;;3.38;;
81265;SDS011;70748;52.510;13.410;2023-07-31T11:48:29;9.75;;;2.95;;
81265;SDS011;70748;52.510;13.410;2023-07-31T11:50:59;4.75;;;2.92;;
81265;SDS011;70748;52.510;13.410;2023-07-31T11:53:43;7.35;;;3.20;;
81265;SDS011;70748;52.510;13.410;2023-07-31T11:56:17;10.75;;;3.42;;
81265;SDS011;70748;52.510;13.410;2023-07-31T11:58:48;8.63;;;3.67;;
81265;SDS011;70748;52.510;13.410;2023-07-31T12:01:19;9.38;;;3.17;;
81265;SDS011;70748;52.510;13.410;2023-07-31T12:03:46;7.72;;;3.40;;
81265;SDS011;70748;52.510;13.410;2023-07-31T12:06:12;7.03;;;3.22;;
81265;SDS011;70748;52.510;13.410;2023-07-31T12:08:38;10.80;;;3.45;;
81265;SDS011;70748;52.510;13.410;2023-07-31T12:11:04;6.45;;;3.05;;
81265;SDS011;70748;52.510;13.410;2023-07-31T12:13:31;9.88;;;3.08;;
81265;SDS011;70748;52.510;13.410;2023-07-31T12:15:58;12.27;;;4.13;;
81265;SDS011;70748;52.510;13.410;2023-07-31T12:18:26;6.63;;;3.25;;
81265;SDS011;70748;52.510;13.410;2023-07-31T12:20:58;8.35;;;3.45;;
81265;SDS011;70748;52.510;13.410;2023-07-31T12:23:29;7.10;;;2.90;;
81265;SDS011;70748;52.510;13.410;2023-07-31T12:26:14;8.05;;;3.28;;
81265;SDS011;70748;52.510;13.410;2023-07-31T12:31:14;7.53;;;3.00;;
81265;SDS011;70748;52.510;13.410;2023-07-31T12:33:45;5.53;;;3.03;;
81265;SDS011;70748;52.510;13.410;2023-07-31T12:36:13;10.40;;;2.72;;
81265;SDS011;70748;52.510;13.410;2023-07-31T12:38:40;9.13;;;3.90;;
81265;SDS011;70748;52.510;13.410;2023-07-31T12:41:06;5.20;;;3.42;;
81265;SDS011;70748;52.510;13.410;2023-07-31T12:43:36;9.20;;;2.90;;
81265;SDS011;70748;52.510;13.410;2023-07-31T12:46:04;6.32;;;2.90;;
81265;SDS011;70748;52.510;13.410;2023-07-31T12:48:34;5.35;;;2.95;;
81265;SDS011;70748;52.510;13.410;2023-07-31T12:51:00;18.00;;;3.60;;
81265;SDS011;70748;52.510;13.410;2023-07-31T12:53:26;8.70;;;3.30;;
81265;SDS011;70748;52.510;13.410;2023-07-31T12:55:52;6.85;;;3.15;;
81265;SDS011;70748;52.510;13.410;2023-07-31T12:58:18;5.63;;;2.90;;
81265;SDS011;70748;52.510;13.410;2023-07-31T13:00:44;9.65;;;2.67;;
81265;SDS011;70748;52.510;13.410;2023-07-31T13:03:09;5.72;;;2.75;;
81265;SDS011;70748;52.510;13.410;2023-07-31T13:05:35;3.90;;;2.72;;
81265;SDS011;70748;52.510;13.410;2023-07-31T13:08:01;5.93;;;3.15;;
81265;SDS011;70748;52.510;13.410;2023-07-31T13:10:27;6.07;;;2.30;;
81265;SDS011;70748;52.510;13.410;2023-07-31T13:12:53;8.23;;;2.40;;
81265;SDS011;70748;52.510;13.410;2023-07-31T13:15:19;5.70;;;2.83;;
81265;SDS011;70748;52.510;13.410;2023-07-31T13:17:45;7.20;;;2.85;;
81265;SDS011;70748;52.510;13.410;2023-07-31T13:20:11;9.25;;;2.75;;
81265;SDS011;70748;52.510;13.410;2023-07-31T13:22:37;5.15;;;2.40;;
81265;SDS011;70748;52.510;13.410;2023-07-31T13:25:03;5.97;;;2.50;;
81265;SDS011;70748;52.510;13.410;2023-07-31T13:27:29;3.15;;;2.47;;
81265;SDS011;70748;52.510;13.410;2023-07-31T13:29:54;12.43;;;3.13;;
81265;SDS011;70748;52.510;13.410;2023-07-31T13:32:20;5.53;;;2.78;;
81265;SDS011;70748;52.510;13.410;2023-07-31T13:34:46;4.65;;;2.88;;
81265;SDS011;70748;52.510;13.410;2023-07-31T13:37:13;8.57;;;3.10;;
81265;SDS011;70748;52.510;13.410;2023-07-31T13:39:39;4.35;;;2.45;;
81265;SDS011;70748;52.510;13.410;2023-07-31T13:42:06;4.43;;;2.78;;
81265;SDS011;70748;52.510;13.410;2023-07-31T13:44:36;4.60;;;2.97;;
81265;SDS011;70748;52.510;13.410;2023-07-31T13:49:27;8.02;;;2.50;;
81265;SDS011;70748;52.510;13.410;2023-07-31T13:51:54;8.80;;;3.25;;
81265;SDS011;70748;52.510;13.410;2023-07-31T13:54:19;7.05;;;2.95;;
81265;SDS011;70748;52.510;13.410;2023-07-31T13:56:45;13.52;;;3.45;;
81265;SDS011;70748;52.510;13.410;2023-07-31T13:59:11;6.00;;;3.08;;
81265;SDS011;70748;52.510;13.410;2023-07-31T14:01:37;8.55;;;3.78;;
81265;SDS011;70748;52.510;13.410;2023-07-31T14:04:03;7.45;;;3.17;;
81265;SDS011;70748;52.510;13.410;2023-07-31T14:06:28;8.15;;;3.50;;
81265;SDS011;70748;52.510;13.410;2023-07-31T14:08:54;6.38;;;3.50;;
81265;SDS011;70748;52.510;13.410;2023-07-31T14:11:20;12.13;;;3.65;;
81265;SDS011;70748;52.510;13.410;2023-07-31T14:13:47;5.68;;;3.30;;
81265;SDS011;70748;52.510;13.410;2023-07-31T14:16:12;8.13;;;3.15;;
81265;SDS011;70748;52.510;13.410;2023-07-31T14:18:38;4.15;;;2.58;;
81265;SDS011;70748;52.510;13.410;2023-07-31T14:21:04;4.75;;;3.05;;
81265;SDS011;70748;52.510;13.410;2023-07-31T14:23:30;6.55;;;3.70;;
81265;SDS011;70748;52.510;13.410;2023-07-31T14:25:55;6.35;;;3.47;;
81265;SDS011;70748;52.510;13.410;2023-07-31T14:28:21;7.90;;;3.45;;
81265;SDS011;70748;52.510;13.410;2023-07-31T14:30:46;9.50;;;3.38;;
81265;SDS011;70748;52.510;13.410;2023-07-31T14:33:12;10.20;;;3.67;;
81265;SDS011;70748;52.510;13.410;2023-07-31T14:35:38;9.55;;;3.65;;
81265;SDS011;70748;52.510;13.410;2023-07-31T14:38:03;4.97;;;3.08;;
81265;SDS011;70748;52.510;13.410;2023-07-31T14:40:29;8.15;;;3.15;;
81265;SDS011;70748;52.510;13.410;2023-07-31T14:42:55;15.30;;;3.53;;
81265;SDS011;70748;52.510;13.410;2023-07-31T14:45:20;5.95;;;3.25;;
81265;SDS011;70748;52.510;13.410;2023-07-31T14:47:46;7.00;;;3.95;;
81265;SDS011;70748;52.510;13.410;2023-07-31T14:50:12;5.15;;;3.38;;
81265;SDS011;70748;52.510;13.410;2023-07-31T14:52:37;6.05;;;3.15;;
81265;SDS011;70748;52.510;13.410;2023-07-31T14:55:03;8.13;;;3.13;;
81265;SDS011;70748;52.510;13.410;2023-07-31T14:57:29;5.38;;;3.20;;
81265;SDS011;70748;52.510;13.410;2023-07-31T14:59:55;5.40;;;3.15;;
81265;SDS011;70748;52.510;13.410;2023-07-31T15:02:20;11.20;;;3.08;;